KITR

Kit Carson County Airport

Burlington, Colorado, USA
METAR KITR 151853Z AUTO 23016G23KT 10SM CLR 13/M13 A2999 RMK AO2 SLP164 T01281133
Observed Flight Rules
Dec-15 @ 18:53 UTC (44 minutes ago) Visual Flight Rules
Wind Visibility Clouds
230° at 16 knots
 Gusting to 23 knots
10 miles
  • Clear skies
Temperatures Readings
Current 13°C / 55°F
Dewpoint -13°C / 9°F
Humidity 15%
Altimeter 29.99" Hg
Pressure 1016.4 hPa
Elevation 1279
METAR KITR 151853Z AUTO 23016G23KT 10SM CLR 13/M13 A2999 RMK AO2 SLP164 T01281133
Observed Flight Rules
Dec-15 @ 18:53 UTC
(44 minutes ago)
VFR
Wind Visibility
230° at 16 knots
 Gusting to 23 knots
10 miles
Clouds
  • Clear skies
Temperature Dewpoint
13°C / 55°F -13°C / 9°F
Humidity Altimeter Pressure
15% 29.99" Hg 1016.4 hPa